createdAt,value
2023-04-10T00:02:09.838Z,11.10
2023-04-10T00:04:44.741Z,11.00
2023-04-10T00:07:18.674Z,11.00
2023-04-10T00:09:52.854Z,11.00
2023-04-10T00:12:26.623Z,10.70
2023-04-10T00:15:01.900Z,11.10
2023-04-10T00:17:35.767Z,10.90
2023-04-10T00:20:11.390Z,10.90
2023-04-10T00:22:45.074Z,10.90
2023-04-10T00:25:18.996Z,10.90
2023-04-10T00:27:52.899Z,10.90
2023-04-10T00:30:27.912Z,10.90
2023-04-10T00:33:01.616Z,10.90
2023-04-10T00:35:35.329Z,10.90
2023-04-10T00:38:08.704Z,10.80
2023-04-10T00:40:43.607Z,10.80
2023-04-10T00:43:20.350Z,10.90
2023-04-10T00:45:55.888Z,10.90
2023-04-10T00:48:29.941Z,10.90
2023-04-10T00:51:04.017Z,10.90
2023-04-10T00:53:37.707Z,10.90
2023-04-10T00:56:12.468Z,10.90
2023-04-10T00:58:46.076Z,10.90
2023-04-10T01:01:21.436Z,11.00
2023-04-10T01:03:57.293Z,10.90
2023-04-10T01:06:52.445Z,10.90
2023-04-10T01:09:42.718Z,10.90
2023-04-10T01:12:41.078Z,10.80
2023-04-10T01:15:18.265Z,10.90
2023-04-10T01:18:03.495Z,11.20
2023-04-10T01:20:41.871Z,10.90
2023-04-10T01:23:42.557Z,11.00
2023-04-10T01:26:19.797Z,10.90
2023-04-10T01:29:01.973Z,11.00
2023-04-10T01:31:44.205Z,11.00
2023-04-10T01:34:23.167Z,10.90
2023-04-10T01:37:02.717Z,10.90
2023-04-10T01:39:42.952Z,11.00
2023-04-10T01:42:20.015Z,11.00
2023-04-10T01:44:57.431Z,10.90
2023-04-10T01:47:31.775Z,10.90
2023-04-10T01:50:07.241Z,10.90
2023-04-10T01:52:42.748Z,10.90
2023-04-10T01:55:17.708Z,10.90
2023-04-10T01:57:52.242Z,11.10
2023-04-10T02:00:27.483Z,10.90
2023-04-10T02:03:01.525Z,11.00
2023-04-10T02:05:47.639Z,10.90
2023-04-10T02:08:31.175Z,11.10
2023-04-10T02:11:16.704Z,11.00
2023-04-10T02:13:55.292Z,10.60
2023-04-10T02:16:33.164Z,11.00
2023-04-10T02:19:09.573Z,10.90
2023-04-10T02:21:45.536Z,10.90
2023-04-10T02:24:20.360Z,11.00
2023-04-10T02:26:56.637Z,11.00
2023-04-10T02:29:30.405Z,11.00
2023-04-10T02:32:06.464Z,11.00
2023-04-10T02:34:40.066Z,11.00
2023-04-10T02:37:14.043Z,11.00
2023-04-10T02:39:48.109Z,11.00
2023-04-10T02:42:22.353Z,11.00
2023-04-10T02:44:55.840Z,10.90
2023-04-10T02:47:31.195Z,10.90
2023-04-10T02:50:05.280Z,11.00
2023-04-10T02:52:39.033Z,11.00
2023-04-10T02:55:13.079Z,11.00
2023-04-10T02:57:47.406Z,10.90
2023-04-10T03:00:21.824Z,10.90
2023-04-10T03:02:58.368Z,10.90
2023-04-10T03:05:32.771Z,10.90
2023-04-10T03:08:06.783Z,10.90
2023-04-10T03:10:40.770Z,10.90
2023-04-10T03:13:14.354Z,11.10
2023-04-10T03:15:48.689Z,10.90
2023-04-10T03:18:24.307Z,10.90
2023-04-10T03:20:57.943Z,10.90
2023-04-10T03:23:31.688Z,11.10
2023-04-10T03:26:06.386Z,10.90
2023-04-10T03:28:41.616Z,10.90
2023-04-10T03:31:15.709Z,10.90
2023-04-10T03:33:51.176Z,10.90
2023-04-10T03:36:25.186Z,10.90
2023-04-10T03:38:58.939Z,10.90
2023-04-10T03:41:32.474Z,10.90
2023-04-10T03:44:06.487Z,10.90
2023-04-10T03:46:41.054Z,10.90
2023-04-10T03:49:16.449Z,10.80
2023-04-10T03:51:50.266Z,10.90
2023-04-10T03:54:25.353Z,10.90
2023-04-10T03:56:59.032Z,10.80
2023-04-10T03:59:38.540Z,11.00
2023-04-10T04:02:13.362Z,10.80
2023-04-10T04:04:50.547Z,10.90
2023-04-10T04:07:24.258Z,11.00
2023-04-10T04:09:58.554Z,10.90
2023-04-10T04:12:32.280Z,10.80
2023-04-10T04:15:07.089Z,10.80
2023-04-10T04:17:40.845Z,10.80
2023-04-10T04:20:18.691Z,10.80
2023-04-10T04:22:52.327Z,10.80
2023-04-10T04:25:26.318Z,11.00
2023-04-10T04:28:00.273Z,10.80
2023-04-10T04:30:35.395Z,10.90
2023-04-10T04:33:09.111Z,10.80
2023-04-10T04:35:44.663Z,11.00
2023-04-10T04:38:20.537Z,10.80
2023-04-10T04:40:55.702Z,10.80
2023-04-10T04:43:29.689Z,10.80
2023-04-10T04:46:03.508Z,10.80
2023-04-10T04:48:38.567Z,10.80
2023-04-10T04:51:13.863Z,10.80
2023-04-10T04:53:47.725Z,10.90
2023-04-10T04:56:21.617Z,10.90
2023-04-10T04:58:56.842Z,10.80
2023-04-10T05:01:30.457Z,10.90
2023-04-10T05:04:04.276Z,10.90
2023-04-10T05:06:39.586Z,10.90
2023-04-10T05:09:14.425Z,10.80
2023-04-10T05:11:48.328Z,10.80
2023-04-10T05:14:23.163Z,10.80
2023-04-10T05:16:57.155Z,11.00
2023-04-10T05:19:31.157Z,10.80
2023-04-10T05:22:06.587Z,10.90
2023-04-10T05:24:41.033Z,10.80
2023-04-10T05:27:14.892Z,10.80
2023-04-10T05:29:48.893Z,10.80
2023-04-10T05:32:22.467Z,10.80
2023-04-10T05:34:56.163Z,10.90
2023-04-10T05:37:31.305Z,10.80
2023-04-10T05:40:06.009Z,10.80
2023-04-10T05:42:40.529Z,10.80
2023-04-10T05:45:15.322Z,10.90
2023-04-10T05:47:49.238Z,10.80
2023-04-10T05:50:23.397Z,10.70
2023-04-10T05:52:58.629Z,10.70
2023-04-10T05:55:33.667Z,10.70
2023-04-10T05:58:08.385Z,10.70
2023-04-10T06:00:42.608Z,10.80
2023-04-10T06:03:16.746Z,10.80
2023-04-10T06:05:51.584Z,10.80
2023-04-10T06:08:27.094Z,10.90
2023-04-10T06:11:01.190Z,10.90
2023-04-10T06:13:35.004Z,11.00
2023-04-10T06:16:09.701Z,11.20
2023-04-10T06:18:43.937Z,11.10
2023-04-10T06:21:17.865Z,11.30
2023-04-10T06:23:55.117Z,11.30
2023-04-10T06:26:29.108Z,11.50
2023-04-10T06:29:03.292Z,11.60
2023-04-10T06:31:37.441Z,11.70
2023-04-10T06:34:11.478Z,11.80
2023-04-10T06:36:45.036Z,11.90
2023-04-10T06:39:20.745Z,12.00
2023-04-10T06:41:56.305Z,12.10
2023-04-10T06:44:29.977Z,12.20
2023-04-10T06:47:03.848Z,12.30
2023-04-10T06:49:37.826Z,12.40
2023-04-10T06:52:12.134Z,12.40
2023-04-10T06:54:48.487Z,12.50
2023-04-10T06:57:22.079Z,12.60
2023-04-10T06:59:57.067Z,12.70
2023-04-10T07:02:30.783Z,12.80
2023-04-10T07:05:04.646Z,13.00
2023-04-10T07:07:38.462Z,13.00
2023-04-10T07:10:14.258Z,13.10
2023-04-10T07:12:48.339Z,13.20
2023-04-10T07:15:21.951Z,13.30
2023-04-10T07:17:56.642Z,13.40
2023-04-10T07:20:30.132Z,13.60
2023-04-10T07:23:03.888Z,13.70
2023-04-10T07:25:39.223Z,13.80
2023-04-10T07:28:12.797Z,13.90
2023-04-10T07:30:46.477Z,14.00
2023-04-10T07:33:20.372Z,14.10
2023-04-10T07:35:54.220Z,14.10
2023-04-10T07:38:28.218Z,14.20
2023-04-10T07:41:03.603Z,14.30
2023-04-10T07:43:37.487Z,14.40
2023-04-10T07:46:11.509Z,14.40
2023-04-10T07:48:47.160Z,14.50
2023-04-10T07:51:21.528Z,14.60
2023-04-10T07:53:55.122Z,14.60
2023-04-10T07:56:31.434Z,14.70
2023-04-10T07:59:07.615Z,14.80
2023-04-10T08:01:41.452Z,14.90
2023-04-10T08:04:15.055Z,14.90
2023-04-10T08:06:49.608Z,15.00
2023-04-10T08:09:22.926Z,15.00
2023-04-10T08:11:58.847Z,15.00
2023-04-10T08:14:32.411Z,15.10
2023-04-10T08:17:05.893Z,15.20
2023-04-10T08:19:39.506Z,15.20
2023-04-10T08:22:13.192Z,15.30
2023-04-10T08:24:46.515Z,15.40
2023-04-10T08:27:21.848Z,15.40
2023-04-10T08:29:55.369Z,15.50
2023-04-10T08:32:32.468Z,15.70
2023-04-10T08:35:07.706Z,15.80
2023-04-10T08:37:41.495Z,15.90
2023-04-10T08:40:15.768Z,16.00
2023-04-10T08:42:51.590Z,16.10
2023-04-10T08:45:25.323Z,16.30
2023-04-10T08:48:05.843Z,16.40
2023-04-10T08:50:46.512Z,16.50
2023-04-10T08:53:25.830Z,16.60
2023-04-10T08:56:01.697Z,16.70
2023-04-10T08:58:37.759Z,16.80
2023-04-10T09:01:12.658Z,16.90
2023-04-10T09:03:50.030Z,16.90
2023-04-10T09:06:24.153Z,17.00
2023-04-10T09:12:10.084Z,17.10
2023-04-10T09:14:49.660Z,17.10
2023-04-10T09:17:25.730Z,17.20
2023-04-10T09:19:59.582Z,17.20
2023-04-10T09:22:35.541Z,17.30
2023-04-10T09:25:36.648Z,17.30
2023-04-10T09:28:11.968Z,17.40
2023-04-10T09:30:46.376Z,17.40
2023-04-10T09:33:25.313Z,17.20
2023-04-10T09:36:01.336Z,17.50
2023-04-10T09:38:36.186Z,17.60
2023-04-10T09:41:12.856Z,17.60
2023-04-10T09:43:46.936Z,17.60
2023-04-10T09:46:29.776Z,17.70
2023-04-10T09:49:05.318Z,17.40
2023-04-10T09:51:39.962Z,17.70
2023-04-10T09:54:13.349Z,17.80
2023-04-10T09:56:50.810Z,17.80
2023-04-10T09:59:24.422Z,17.90
2023-04-10T10:01:58.545Z,17.90
2023-04-10T10:04:32.689Z,18.00
2023-04-10T10:07:06.552Z,18.10
2023-04-10T10:09:40.802Z,18.10
2023-04-10T10:12:23.676Z,18.20
2023-04-10T10:15:03.513Z,18.30
2023-04-10T10:17:46.751Z,18.30
2023-04-10T10:20:25.598Z,18.40
2023-04-10T10:23:03.942Z,18.40
2023-04-10T10:25:40.069Z,18.50
2023-04-10T10:28:16.481Z,18.50
2023-04-10T10:30:51.491Z,18.60
2023-04-10T10:33:28.789Z,18.70
2023-04-10T10:36:03.085Z,18.70
2023-04-10T10:38:41.811Z,18.70
2023-04-10T10:41:25.676Z,18.80
2023-04-10T10:44:15.791Z,18.80
2023-04-10T10:46:56.210Z,18.80
2023-04-10T10:49:58.604Z,18.90
2023-04-10T10:52:47.286Z,19.00
2023-04-10T10:55:37.906Z,19.10
2023-04-10T10:58:13.304Z,19.20
2023-04-10T11:01:12.540Z,19.30
2023-04-10T11:03:46.777Z,19.30
2023-04-10T11:06:22.814Z,19.40
2023-04-10T11:08:56.982Z,19.40
2023-04-10T11:11:31.685Z,19.50
2023-04-10T11:14:18.485Z,19.50
2023-04-10T11:16:53.969Z,19.60
2023-04-10T11:19:27.777Z,19.70
2023-04-10T11:22:10.722Z,19.70
2023-04-10T11:24:59.259Z,19.80
2023-04-10T11:27:57.240Z,19.80
2023-04-10T11:30:34.765Z,19.90
2023-04-10T11:33:10.965Z,20.00
2023-04-10T11:35:48.799Z,20.00
2023-04-10T11:38:23.703Z,20.00
2023-04-10T11:41:06.881Z,20.00
2023-04-10T11:43:43.212Z,20.00
2023-04-10T11:46:16.720Z,20.10
2023-04-10T11:48:55.284Z,20.10
2023-04-10T11:51:29.411Z,20.20
2023-04-10T11:54:10.805Z,20.20
2023-04-10T11:56:47.213Z,20.20
2023-04-10T11:59:20.959Z,20.20
2023-04-10T12:01:56.572Z,20.30
2023-04-10T12:04:32.041Z,20.30
2023-04-10T12:07:06.125Z,20.40
2023-04-10T12:09:40.659Z,20.40
2023-04-10T12:12:15.343Z,20.40
2023-04-10T12:14:48.704Z,20.40
2023-04-10T12:17:22.260Z,20.50
2023-04-10T12:19:58.300Z,20.60
2023-04-10T12:22:32.002Z,20.60
2023-04-10T12:25:06.260Z,20.70
2023-04-10T12:27:40.127Z,20.70
2023-04-10T12:30:14.058Z,20.70
2023-04-10T12:32:54.654Z,20.70
2023-04-10T12:35:42.563Z,20.70
2023-04-10T12:38:16.305Z,20.80
2023-04-10T12:41:02.249Z,20.80
2023-04-10T12:43:39.658Z,20.80
2023-04-10T12:46:26.232Z,20.80
2023-04-10T12:49:11.892Z,20.80
2023-04-10T12:51:49.537Z,20.80
2023-04-10T12:54:34.124Z,20.90
2023-04-10T12:57:09.336Z,20.90
2023-04-10T12:59:45.255Z,20.90
2023-04-10T13:02:21.653Z,21.00
2023-04-10T13:04:56.431Z,21.00
2023-04-10T13:07:31.929Z,21.00
2023-04-10T13:10:08.554Z,21.00
2023-04-10T13:12:44.442Z,21.00
2023-04-10T13:15:18.898Z,21.00
2023-04-10T13:17:53.700Z,21.00
2023-04-10T13:20:28.060Z,20.90
2023-04-10T13:23:04.200Z,20.90
2023-04-10T13:25:42.250Z,20.90
2023-04-10T13:28:16.261Z,20.80
2023-04-10T13:30:50.489Z,20.80
2023-04-10T13:33:25.055Z,20.80
2023-04-10T13:36:00.199Z,20.70
2023-04-10T13:38:35.894Z,20.80
2023-04-10T13:41:10.145Z,20.80
2023-04-10T13:43:44.243Z,20.80
2023-04-10T13:46:19.618Z,20.80
2023-04-10T13:48:53.450Z,20.70
2023-04-10T13:51:27.957Z,20.70
2023-04-10T13:54:04.993Z,20.70
2023-04-10T13:56:39.120Z,20.70
2023-04-10T13:59:12.995Z,20.70
2023-04-10T14:01:47.729Z,20.70
2023-04-10T14:04:21.497Z,20.60
2023-04-10T14:06:59.015Z,20.60
2023-04-10T14:09:37.237Z,20.60
2023-04-10T14:12:10.778Z,20.60
2023-04-10T14:14:46.920Z,20.60
2023-04-10T14:17:20.723Z,20.60
2023-04-10T14:19:54.395Z,20.60
2023-04-10T14:22:30.222Z,20.60
2023-04-10T14:25:13.187Z,20.60
2023-04-10T14:27:47.428Z,20.50
2023-04-10T14:30:21.190Z,20.50
2023-04-10T14:32:55.006Z,20.50
2023-04-10T14:35:28.932Z,20.50
2023-04-10T14:38:02.543Z,20.50
2023-04-10T14:40:40.684Z,20.50
2023-04-10T14:43:14.012Z,20.40
2023-04-10T14:45:47.859Z,20.40
2023-04-10T14:48:23.258Z,20.40
2023-04-10T14:50:59.341Z,20.40
2023-04-10T14:53:33.439Z,20.30
2023-04-10T14:56:13.555Z,20.30
2023-04-10T14:58:48.658Z,20.30
2023-04-10T15:01:22.593Z,20.30
2023-04-10T15:03:56.305Z,20.30
2023-04-10T15:06:32.654Z,20.20
2023-04-10T15:09:06.871Z,20.20
2023-04-10T15:11:41.893Z,20.20
2023-04-10T15:14:15.448Z,20.20
2023-04-10T15:16:49.114Z,20.10
2023-04-10T15:19:22.842Z,20.10
2023-04-10T15:21:56.786Z,20.10
2023-04-10T15:24:37.055Z,20.10
2023-04-10T15:27:20.694Z,20.10
2023-04-10T15:29:54.454Z,20.00
2023-04-10T15:32:28.134Z,20.00
2023-04-10T15:35:02.231Z,20.00
2023-04-10T15:37:37.732Z,20.00
2023-04-10T15:40:12.663Z,20.00
2023-04-10T15:42:47.732Z,20.00
2023-04-10T15:45:21.891Z,20.10
2023-04-10T15:47:56.234Z,20.00
2023-04-10T15:50:29.919Z,20.00
2023-04-10T15:53:03.857Z,20.10
2023-04-10T15:55:41.542Z,20.00
2023-04-10T15:58:16.774Z,20.10
2023-04-10T16:00:50.320Z,20.00
2023-04-10T16:03:24.371Z,20.10
2023-04-10T16:05:58.548Z,20.10
2023-04-10T16:08:32.639Z,20.10
2023-04-10T16:11:07.030Z,20.10
2023-04-10T16:13:44.854Z,20.20
2023-04-10T16:16:20.389Z,20.20
2023-04-10T16:18:56.404Z,20.20
2023-04-10T16:21:30.424Z,20.20
2023-04-10T16:24:04.405Z,20.20
2023-04-10T16:26:38.262Z,20.20
2023-04-10T16:29:13.923Z,20.20
2023-04-10T16:31:47.803Z,20.20
2023-04-10T16:34:21.510Z,20.10
2023-04-10T16:36:54.905Z,20.20
2023-04-10T16:39:28.935Z,20.10
2023-04-10T16:42:03.863Z,20.10
2023-04-10T16:44:39.304Z,20.10
2023-04-10T16:47:14.114Z,20.10
2023-04-10T16:49:48.050Z,20.00
2023-04-10T16:52:21.840Z,20.00
2023-04-10T16:54:58.906Z,19.90
2023-04-10T16:57:32.913Z,19.90
2023-04-10T17:00:11.177Z,19.90
2023-04-10T17:02:45.387Z,19.80
2023-04-10T17:05:21.498Z,19.70
2023-04-10T17:07:55.144Z,19.70
2023-04-10T17:10:29.301Z,19.60
2023-04-10T17:13:03.051Z,19.50
2023-04-10T17:15:38.605Z,19.40
2023-04-10T17:18:12.863Z,19.30
2023-04-10T17:20:48.219Z,19.10
2023-04-10T17:23:22.167Z,19.00
2023-04-10T17:25:56.108Z,18.90
2023-04-10T17:28:29.955Z,18.80
2023-04-10T17:31:06.743Z,18.60
2023-04-10T17:33:42.029Z,18.30
2023-04-10T17:36:16.761Z,18.50
2023-04-10T17:38:54.170Z,18.40
2023-04-10T17:41:28.219Z,18.30
2023-04-10T17:44:03.489Z,18.20
2023-04-10T17:46:40.048Z,18.20
2023-04-10T17:49:14.091Z,18.10
2023-04-10T17:51:48.366Z,18.10
2023-04-10T17:54:22.045Z,18.00
2023-04-10T17:56:55.440Z,18.00
2023-04-10T17:59:32.187Z,17.90
2023-04-10T18:02:08.695Z,17.90
2023-04-10T18:04:42.618Z,17.90
2023-04-10T18:07:16.518Z,17.80
2023-04-10T18:09:50.110Z,17.80
2023-04-10T18:12:24.322Z,17.80
2023-04-10T18:14:58.081Z,17.70
2023-04-10T18:17:33.206Z,17.70
2023-04-10T18:20:08.266Z,17.70
2023-04-10T18:22:42.386Z,17.60
2023-04-10T18:25:16.369Z,17.60
2023-04-10T18:28:09.672Z,17.50
2023-04-10T18:30:44.084Z,17.40
2023-04-10T18:33:23.895Z,17.40
2023-04-10T18:35:59.158Z,17.30
2023-04-10T18:38:35.733Z,17.20
2023-04-10T18:41:09.691Z,17.10
2023-04-10T18:43:48.818Z,17.00
2023-04-10T18:46:32.730Z,17.00
2023-04-10T18:49:08.243Z,16.90
2023-04-10T18:51:43.466Z,16.80
2023-04-10T18:54:17.290Z,16.80
2023-04-10T18:56:50.948Z,16.80
2023-04-10T18:59:24.998Z,16.80
2023-04-10T19:01:58.838Z,16.70
2023-04-10T19:04:34.582Z,16.70
2023-04-10T19:07:10.548Z,16.70
2023-04-10T19:09:45.954Z,16.70
2023-04-10T19:12:21.353Z,16.60
2023-04-10T19:14:55.210Z,16.60
2023-04-10T19:17:28.650Z,16.60
2023-04-10T19:20:03.673Z,16.50
2023-04-10T19:22:38.989Z,16.50
2023-04-10T19:25:12.704Z,16.40
2023-04-10T19:27:46.499Z,16.40
2023-04-10T19:30:21.298Z,16.30
2023-04-10T19:32:57.080Z,16.30
2023-04-10T19:35:32.354Z,16.20
2023-04-10T19:38:06.344Z,16.20
2023-04-10T19:40:40.786Z,16.10
2023-04-10T19:43:14.544Z,16.10
2023-04-10T19:45:48.281Z,16.00
2023-04-10T19:48:23.126Z,16.00
2023-04-10T19:51:05.977Z,15.90
2023-04-10T19:53:40.403Z,15.90
2023-04-10T19:56:14.324Z,15.80
2023-04-10T19:58:48.180Z,15.70
2023-04-10T20:01:24.076Z,15.70
2023-04-10T20:03:58.590Z,15.60
2023-04-10T20:06:33.873Z,15.50
2023-04-10T20:09:07.378Z,15.50
2023-04-10T20:11:40.782Z,15.50
2023-04-10T20:14:14.906Z,15.40
2023-04-10T20:16:48.528Z,15.40
2023-04-10T20:19:22.407Z,15.30
2023-04-10T20:21:58.720Z,15.30
2023-04-10T20:24:34.022Z,15.20
2023-04-10T20:27:07.943Z,15.20
2023-04-10T20:29:41.806Z,15.20
2023-04-10T20:32:15.543Z,15.10
2023-04-10T20:34:49.357Z,15.10
2023-04-10T20:37:26.877Z,15.00
2023-04-10T20:40:01.193Z,15.00
2023-04-10T20:42:34.605Z,14.90
2023-04-10T20:45:09.231Z,14.90
2023-04-10T20:47:42.907Z,14.90
2023-04-10T20:50:17.274Z,14.80
2023-04-10T20:52:52.539Z,14.80
2023-04-10T20:55:26.712Z,14.70
2023-04-10T20:58:00.655Z,14.70
2023-04-10T21:00:39.956Z,14.70
2023-04-10T21:03:14.081Z,14.70
2023-04-10T21:05:48.093Z,14.60
2023-04-10T21:08:23.352Z,14.60
2023-04-10T21:10:59.393Z,14.60
2023-04-10T21:13:33.520Z,14.60
2023-04-10T21:16:08.445Z,14.60
2023-04-10T21:18:42.338Z,14.50
2023-04-10T21:21:16.773Z,14.50
2023-04-10T21:23:52.144Z,14.50
2023-04-10T21:26:26.104Z,14.40
2023-04-10T21:28:59.944Z,14.30
2023-04-10T21:31:33.949Z,14.30
2023-04-10T21:34:08.068Z,14.30
2023-04-10T21:36:41.672Z,14.20
2023-04-10T21:39:17.090Z,14.20
2023-04-10T21:41:50.565Z,14.20
2023-04-10T21:44:24.269Z,14.10
2023-04-10T21:46:58.062Z,14.10
2023-04-10T21:49:31.853Z,14.00
2023-04-10T21:52:07.133Z,14.00
2023-04-10T21:54:42.026Z,14.00
2023-04-10T21:57:15.578Z,13.90
2023-04-10T21:59:49.396Z,13.90
2023-04-10T22:02:25.344Z,13.90
2023-04-10T22:04:59.634Z,13.80
2023-04-10T22:07:33.496Z,13.80
2023-04-10T22:10:11.806Z,13.70
2023-04-10T22:12:48.565Z,13.70
2023-04-10T22:15:22.495Z,13.70
2023-04-10T22:17:56.170Z,13.70
2023-04-10T22:20:29.764Z,13.70
2023-04-10T22:23:05.023Z,13.60
2023-04-10T22:25:40.427Z,13.60
2023-04-10T22:28:14.688Z,13.60
2023-04-10T22:30:49.015Z,13.60
2023-04-10T22:33:22.920Z,13.60
2023-04-10T22:35:56.817Z,13.60
2023-04-10T22:38:31.741Z,13.60
2023-04-10T22:41:07.718Z,13.60
2023-04-10T22:43:45.260Z,13.50
2023-04-10T22:46:18.732Z,13.50
2023-04-10T22:48:52.650Z,13.50
2023-04-10T22:51:27.185Z,13.50
2023-04-10T22:54:00.933Z,13.50
2023-04-10T22:56:37.373Z,13.50
2023-04-10T22:59:11.031Z,13.40
2023-04-10T23:01:45.317Z,13.40
2023-04-10T23:04:19.372Z,13.40
2023-04-10T23:06:53.298Z,13.30
2023-04-10T23:09:27.241Z,13.30
2023-04-10T23:12:02.663Z,13.30
2023-04-10T23:14:36.695Z,13.20
2023-04-10T23:17:10.407Z,13.20
2023-04-10T23:19:44.183Z,13.20
2023-04-10T23:22:18.617Z,13.20
2023-04-10T23:24:55.228Z,13.10
2023-04-10T23:27:30.711Z,13.10
2023-04-10T23:30:04.713Z,13.10
2023-04-10T23:32:38.773Z,13.10
2023-04-10T23:35:12.610Z,13.10
2023-04-10T23:37:46.525Z,13.10
2023-04-10T23:40:21.395Z,13.10
2023-04-10T23:42:56.739Z,13.10
2023-04-10T23:45:30.608Z,13.10
2023-04-10T23:48:04.590Z,13.30
2023-04-10T23:50:38.134Z,13.10
2023-04-10T23:53:13.977Z,13.10
2023-04-10T23:55:47.994Z,13.10
2023-04-10T23:58:23.498Z,13.10
